createdAt,value
2023-05-15T00:01:38.381Z,99.90
2023-05-15T00:04:23.886Z,99.90
2023-05-15T00:07:09.768Z,99.90
2023-05-15T00:09:57.221Z,99.90
2023-05-15T00:12:42.811Z,99.90
2023-05-15T00:15:28.722Z,99.90
2023-05-15T00:18:14.673Z,99.90
2023-05-15T00:21:00.415Z,99.90
2023-05-15T00:23:47.511Z,99.90
2023-05-15T00:26:34.841Z,99.90
2023-05-15T00:29:20.326Z,99.90
2023-05-15T00:32:06.480Z,99.90
2023-05-15T00:34:52.040Z,99.90
2023-05-15T00:37:37.754Z,99.90
2023-05-15T00:40:26.010Z,99.90
2023-05-15T00:43:14.962Z,99.90
2023-05-15T00:46:02.408Z,99.90
2023-05-15T00:48:50.222Z,99.90
2023-05-15T00:51:36.923Z,99.90
2023-05-15T00:54:22.917Z,99.90
2023-05-15T00:57:10.169Z,99.90
2023-05-15T00:59:57.310Z,99.90
2023-05-15T01:02:43.980Z,99.90
2023-05-15T01:05:29.698Z,99.90
2023-05-15T01:08:21.662Z,99.90
2023-05-15T01:11:11.712Z,99.90
2023-05-15T01:13:57.834Z,99.90
2023-05-15T01:16:45.984Z,99.90
2023-05-15T01:19:31.792Z,99.90
2023-05-15T01:22:46.917Z,99.90
2023-05-15T01:25:54.088Z,99.90
2023-05-15T01:28:47.951Z,99.90
2023-05-15T01:31:37.197Z,99.90
2023-05-15T01:34:29.489Z,99.90
2023-05-15T01:37:21.999Z,99.90
2023-05-15T01:40:10.699Z,99.90
2023-05-15T01:43:01.380Z,99.90
2023-05-15T01:45:48.154Z,99.90
2023-05-15T01:48:36.495Z,99.90
2023-05-15T01:51:24.304Z,99.90
2023-05-15T01:54:11.626Z,99.90
2023-05-15T01:56:58.968Z,99.90
2023-05-15T01:59:45.326Z,99.90
2023-05-15T02:02:32.724Z,99.90
2023-05-15T02:05:19.325Z,99.90
2023-05-15T02:08:06.105Z,99.90
2023-05-15T02:10:53.139Z,99.90
2023-05-15T02:13:40.829Z,99.90
2023-05-15T02:16:26.640Z,99.90
2023-05-15T02:19:14.103Z,99.90
2023-05-15T02:22:00.265Z,99.90
2023-05-15T02:24:46.206Z,99.90
2023-05-15T02:27:38.647Z,99.90
2023-05-15T02:30:34.663Z,99.90
2023-05-15T02:33:25.789Z,99.90
2023-05-15T02:36:16.164Z,99.90
2023-05-15T02:39:02.698Z,99.90
2023-05-15T02:41:49.199Z,99.90
2023-05-15T02:44:36.615Z,99.90
2023-05-15T02:47:23.974Z,99.90
2023-05-15T02:50:10.706Z,99.90
2023-05-15T02:53:03.549Z,99.90
2023-05-15T02:55:49.636Z,99.90
2023-05-15T02:58:35.567Z,99.90
2023-05-15T03:01:21.574Z,99.90
2023-05-15T03:04:07.221Z,99.90
2023-05-15T03:06:52.802Z,99.90
2023-05-15T03:09:39.984Z,99.90
2023-05-15T03:12:26.321Z,99.90
2023-05-15T03:15:11.866Z,99.90
2023-05-15T03:17:57.927Z,99.90
2023-05-15T03:20:43.599Z,99.90
2023-05-15T03:23:31.169Z,99.90
2023-05-15T03:26:18.347Z,99.90
2023-05-15T03:29:04.286Z,99.90
2023-05-15T03:31:50.144Z,99.90
2023-05-15T03:34:36.338Z,99.90
2023-05-15T03:37:21.849Z,99.90
2023-05-15T03:40:09.314Z,99.90
2023-05-15T03:42:58.329Z,99.90
2023-05-15T03:45:44.433Z,99.90
2023-05-15T03:48:30.049Z,99.90
2023-05-15T03:51:15.878Z,99.90
2023-05-15T03:54:15.904Z,99.90
2023-05-15T03:57:04.924Z,99.90
2023-05-15T03:59:50.556Z,99.90
2023-05-15T04:02:37.028Z,99.90
2023-05-15T04:05:22.800Z,99.90
2023-05-15T04:08:10.096Z,99.90
2023-05-15T04:10:57.268Z,99.90
2023-05-15T04:13:43.091Z,99.90
2023-05-15T04:16:28.977Z,99.90
2023-05-15T04:19:14.853Z,99.90
2023-05-15T04:22:00.461Z,99.90
2023-05-15T04:24:45.899Z,99.90
2023-05-15T04:27:32.917Z,99.90
2023-05-15T04:30:18.524Z,99.90
2023-05-15T04:33:03.997Z,99.90
2023-05-15T04:35:49.887Z,99.90
2023-05-15T04:38:35.615Z,99.90
2023-05-15T04:41:24.409Z,99.90
2023-05-15T04:44:11.767Z,99.90
2023-05-15T04:46:57.566Z,99.90
2023-05-15T04:49:43.581Z,99.90
2023-05-15T04:52:29.222Z,99.90
2023-05-15T04:55:14.790Z,99.90
2023-05-15T04:58:00.266Z,99.90
2023-05-15T05:00:47.658Z,99.90
2023-05-15T05:03:33.521Z,99.90
2023-05-15T05:06:19.457Z,99.90
2023-05-15T05:09:05.880Z,99.90
2023-05-15T05:11:51.532Z,99.90
2023-05-15T05:14:37.470Z,99.90
2023-05-15T05:17:24.325Z,99.90
2023-05-15T05:20:13.190Z,99.90
2023-05-15T05:22:59.235Z,99.90
2023-05-15T05:25:45.030Z,99.90
2023-05-15T05:28:30.611Z,99.90
2023-05-15T05:31:16.368Z,99.90
2023-05-15T05:34:03.746Z,99.90
2023-05-15T05:36:49.731Z,99.90
2023-05-15T05:39:40.377Z,99.90
2023-05-15T05:42:26.886Z,99.90
2023-05-15T05:45:12.858Z,99.90
2023-05-15T05:48:01.516Z,98.80
2023-05-15T05:50:48.729Z,96.60
2023-05-15T05:53:34.216Z,95.60
2023-05-15T05:56:20.054Z,94.90
2023-05-15T05:59:06.427Z,95.10
2023-05-15T06:01:52.375Z,95.40
2023-05-15T06:04:38.661Z,94.50
2023-05-15T06:07:25.832Z,93.80
2023-05-15T06:10:12.900Z,93.50
2023-05-15T06:12:58.546Z,91.30
2023-05-15T06:15:45.868Z,91.00
2023-05-15T06:18:31.686Z,89.30
2023-05-15T06:21:17.707Z,85.40
2023-05-15T06:24:04.797Z,85.80
2023-05-15T06:26:52.374Z,85.10
2023-05-15T06:29:38.177Z,84.70
2023-05-15T06:32:24.466Z,86.30
2023-05-15T06:35:10.708Z,88.30
2023-05-15T06:37:57.156Z,90.40
2023-05-15T06:40:45.690Z,91.50
2023-05-15T06:43:31.254Z,91.10
2023-05-15T06:46:19.162Z,89.90
2023-05-15T06:49:05.080Z,89.40
2023-05-15T06:51:51.220Z,86.10
2023-05-15T06:54:37.550Z,80.40
2023-05-15T06:57:24.398Z,74.70
2023-05-15T07:00:11.543Z,66.20
2023-05-15T07:02:57.527Z,68.20
2023-05-15T07:05:43.668Z,62.40
2023-05-15T07:08:29.276Z,58.50
2023-05-15T07:11:14.859Z,56.10
2023-05-15T07:14:02.325Z,53.10
2023-05-15T07:16:47.848Z,52.20
2023-05-15T07:19:33.582Z,51.20
2023-05-15T07:22:19.268Z,52.00
2023-05-15T07:25:06.565Z,51.20
2023-05-15T07:27:52.870Z,51.70
2023-05-15T07:30:39.781Z,49.70
2023-05-15T07:33:25.460Z,51.60
2023-05-15T07:36:11.382Z,48.60
2023-05-15T07:38:57.278Z,49.80
2023-05-15T07:41:42.866Z,49.10
2023-05-15T07:44:28.896Z,49.80
2023-05-15T07:47:17.272Z,52.20
2023-05-15T07:50:03.350Z,52.10
2023-05-15T07:52:49.051Z,51.10
2023-05-15T07:55:34.689Z,52.60
2023-05-15T07:58:20.640Z,52.00
2023-05-15T08:01:06.782Z,51.20
2023-05-15T08:03:53.946Z,51.10
2023-05-15T08:06:40.035Z,50.30
2023-05-15T08:09:25.604Z,47.90
2023-05-15T08:12:21.164Z,47.60
2023-05-15T08:15:08.584Z,47.20
2023-05-15T08:17:53.976Z,47.80
2023-05-15T08:20:40.947Z,48.40
2023-05-15T08:23:26.714Z,47.50
2023-05-15T08:26:12.693Z,46.50
2023-05-15T08:28:58.511Z,48.20
2023-05-15T08:31:44.530Z,51.10
2023-05-15T08:34:30.305Z,51.80
2023-05-15T08:37:17.279Z,52.20
2023-05-15T08:40:05.404Z,53.60
2023-05-15T08:42:55.485Z,52.10
2023-05-15T08:45:41.970Z,55.90
2023-05-15T08:48:30.075Z,55.30
2023-05-15T08:51:16.311Z,56.60
2023-05-15T08:54:03.962Z,55.70
2023-05-15T08:56:49.525Z,55.80
2023-05-15T08:59:35.526Z,56.20
2023-05-15T09:02:21.676Z,54.90
2023-05-15T09:05:09.708Z,55.10
2023-05-15T09:07:56.667Z,53.50
2023-05-15T09:10:44.129Z,53.30
2023-05-15T09:13:30.614Z,55.10
2023-05-15T09:16:16.165Z,56.60
2023-05-15T09:19:02.631Z,57.40
2023-05-15T09:21:49.281Z,57.70
2023-05-15T09:24:38.154Z,58.20
2023-05-15T09:27:26.356Z,58.70
2023-05-15T09:30:13.370Z,59.00
2023-05-15T09:33:01.447Z,60.20
2023-05-15T09:35:47.337Z,61.90
2023-05-15T09:38:33.539Z,61.80
2023-05-15T09:41:25.867Z,63.20
2023-05-15T09:44:27.988Z,62.00
2023-05-15T09:47:16.802Z,64.00
2023-05-15T09:50:05.989Z,64.60
2023-05-15T09:52:52.213Z,64.70
2023-05-15T09:55:37.921Z,64.30
2023-05-15T09:58:23.877Z,65.60
2023-05-15T10:01:15.400Z,64.60
2023-05-15T10:04:03.691Z,65.00
2023-05-15T10:06:49.535Z,67.80
2023-05-15T10:09:34.967Z,67.60
2023-05-15T10:12:20.871Z,68.20
2023-05-15T10:15:08.316Z,69.20
2023-05-15T10:17:55.714Z,69.60
2023-05-15T10:20:42.050Z,70.10
2023-05-15T10:23:29.282Z,71.60
2023-05-15T10:26:23.700Z,72.70
2023-05-15T10:29:11.455Z,72.70
2023-05-15T10:31:59.075Z,75.20
2023-05-15T10:34:46.521Z,75.30
2023-05-15T10:37:32.865Z,74.20
2023-05-15T10:40:19.217Z,74.80
2023-05-15T10:43:06.057Z,73.70
2023-05-15T10:45:52.862Z,74.00
2023-05-15T10:48:39.756Z,74.80
2023-05-15T10:51:28.143Z,74.40
2023-05-15T10:54:14.243Z,76.90
2023-05-15T10:56:59.807Z,78.80
2023-05-15T10:59:45.159Z,78.10
2023-05-15T11:02:31.647Z,80.20
2023-05-15T11:05:17.640Z,80.50
2023-05-15T11:08:27.397Z,82.10
2023-05-15T11:11:46.631Z,81.80
2023-05-15T11:14:34.105Z,82.30
2023-05-15T11:17:19.767Z,81.90
2023-05-15T11:20:06.107Z,83.90
2023-05-15T11:22:59.859Z,83.20
2023-05-15T11:25:53.374Z,82.70
2023-05-15T11:28:43.700Z,81.90
2023-05-15T11:31:31.296Z,83.10
2023-05-15T11:34:30.248Z,84.30
2023-05-15T11:37:19.761Z,85.20
2023-05-15T11:40:07.106Z,85.40
2023-05-15T11:43:03.173Z,85.40
2023-05-15T11:45:52.824Z,82.90
2023-05-15T11:48:41.287Z,82.60
2023-05-15T11:51:27.842Z,83.60
2023-05-15T11:54:14.266Z,84.30
2023-05-15T11:57:00.006Z,84.30
2023-05-15T11:59:47.420Z,86.50
2023-05-15T12:02:33.311Z,87.00
2023-05-15T12:05:19.223Z,89.00
2023-05-15T12:08:10.181Z,90.00
2023-05-15T12:10:59.179Z,90.50
2023-05-15T12:13:45.489Z,90.60
2023-05-15T12:16:32.992Z,91.30
2023-05-15T12:19:18.820Z,91.50
2023-05-15T12:22:05.198Z,92.20
2023-05-15T12:24:51.913Z,92.30
2023-05-15T12:27:39.681Z,93.10
2023-05-15T12:30:26.743Z,94.30
2023-05-15T12:33:14.780Z,94.30
2023-05-15T12:36:01.799Z,94.60
2023-05-15T12:38:48.340Z,94.40
2023-05-15T12:41:34.308Z,94.10
2023-05-15T12:44:20.469Z,93.60
2023-05-15T12:47:06.401Z,91.90
2023-05-15T12:49:57.326Z,90.60
2023-05-15T12:52:53.970Z,89.70
2023-05-15T12:55:40.421Z,88.70
2023-05-15T12:58:26.312Z,84.80
2023-05-15T13:01:13.105Z,80.30
2023-05-15T13:03:59.498Z,77.20
2023-05-15T13:06:47.898Z,71.10
2023-05-15T13:09:36.861Z,70.30
2023-05-15T13:12:23.816Z,70.60
2023-05-15T13:15:23.193Z,68.30
2023-05-15T13:18:11.416Z,69.70
2023-05-15T13:20:57.457Z,69.30
2023-05-15T13:23:44.554Z,67.60
2023-05-15T13:26:30.712Z,68.10
2023-05-15T13:29:16.930Z,69.30
2023-05-15T13:32:02.988Z,70.90
2023-05-15T13:34:49.044Z,72.50
2023-05-15T13:37:35.032Z,74.90
2023-05-15T13:40:22.648Z,76.10
2023-05-15T13:43:08.591Z,78.30
2023-05-15T13:45:54.847Z,80.30
2023-05-15T13:48:40.520Z,81.90
2023-05-15T13:51:26.297Z,80.90
2023-05-15T13:54:11.888Z,77.30
2023-05-15T13:56:59.873Z,79.80
2023-05-15T13:59:46.012Z,84.60
2023-05-15T14:02:31.861Z,86.60
2023-05-15T14:05:18.405Z,89.10
2023-05-15T14:08:05.017Z,90.30
2023-05-15T14:10:50.946Z,90.60
2023-05-15T14:13:38.172Z,91.80
2023-05-15T14:16:24.042Z,91.70
2023-05-15T14:19:10.033Z,92.20
2023-05-15T14:21:56.128Z,92.10
2023-05-15T14:24:42.093Z,91.90
2023-05-15T14:27:28.061Z,90.70
2023-05-15T14:30:15.126Z,89.40
2023-05-15T14:33:01.255Z,86.50
2023-05-15T14:35:47.042Z,85.20
2023-05-15T14:38:33.055Z,85.00
2023-05-15T14:41:18.958Z,86.10
2023-05-15T14:44:04.920Z,87.70
2023-05-15T14:47:06.445Z,89.00
2023-05-15T14:49:52.203Z,90.50
2023-05-15T14:52:38.105Z,90.80
2023-05-15T14:55:24.074Z,91.10
2023-05-15T14:58:11.388Z,91.80
2023-05-15T15:00:57.775Z,91.80
2023-05-15T15:03:44.898Z,91.90
2023-05-15T15:06:31.832Z,91.90
2023-05-15T15:09:20.304Z,92.20
2023-05-15T15:12:07.756Z,92.20
2023-05-15T15:14:53.574Z,92.10
2023-05-15T15:17:39.331Z,92.50
2023-05-15T15:20:28.085Z,92.20
2023-05-15T15:23:14.631Z,91.80
2023-05-15T15:26:00.642Z,91.50
2023-05-15T15:28:46.225Z,91.30
2023-05-15T15:31:32.116Z,91.50
2023-05-15T15:34:17.768Z,91.60
2023-05-15T15:37:05.358Z,91.40
2023-05-15T15:39:51.138Z,90.80
2023-05-15T15:42:36.894Z,90.70
2023-05-15T15:45:23.153Z,91.40
2023-05-15T15:48:08.947Z,91.90
2023-05-15T15:50:55.180Z,91.90
2023-05-15T15:53:42.593Z,92.30
2023-05-15T15:56:28.331Z,92.90
2023-05-15T15:59:14.186Z,93.90
2023-05-15T16:01:59.623Z,94.30
2023-05-15T16:04:45.346Z,95.20
2023-05-15T16:07:30.786Z,94.90
2023-05-15T16:10:17.962Z,95.10
2023-05-15T16:13:03.834Z,95.00
2023-05-15T16:15:52.658Z,94.60
2023-05-15T16:18:38.736Z,95.00
2023-05-15T16:21:24.766Z,95.30
2023-05-15T16:24:10.795Z,95.80
2023-05-15T16:26:58.110Z,96.20
2023-05-15T16:29:44.692Z,95.80
2023-05-15T16:32:30.502Z,95.60
2023-05-15T16:35:16.889Z,95.20
2023-05-15T16:38:03.253Z,95.50
2023-05-15T16:40:49.417Z,95.40
2023-05-15T16:43:38.240Z,95.30
2023-05-15T16:46:24.390Z,95.70
2023-05-15T16:49:10.381Z,95.60
2023-05-15T16:51:56.311Z,96.00
2023-05-15T16:54:42.085Z,96.60
2023-05-15T16:57:28.149Z,97.50
2023-05-15T17:00:16.700Z,97.00
2023-05-15T17:03:03.748Z,97.30
2023-05-15T17:05:50.043Z,97.90
2023-05-15T17:08:36.596Z,98.30
2023-05-15T17:11:23.035Z,98.70
2023-05-15T17:14:18.591Z,98.10
2023-05-15T17:17:08.887Z,98.20
2023-05-15T17:19:55.507Z,98.50
2023-05-15T17:22:41.840Z,97.60
2023-05-15T17:25:28.156Z,97.50
2023-05-15T17:28:14.381Z,97.90
2023-05-15T17:31:00.528Z,98.00
2023-05-15T17:33:47.941Z,97.60
2023-05-15T17:36:33.828Z,98.20
2023-05-15T17:39:19.618Z,98.20
2023-05-15T17:42:05.812Z,98.20
2023-05-15T17:44:51.526Z,98.00
2023-05-15T17:47:37.919Z,97.60
2023-05-15T17:50:24.822Z,97.20
2023-05-15T17:53:11.029Z,97.40
2023-05-15T17:55:56.796Z,97.50
2023-05-15T17:58:42.837Z,97.90
2023-05-15T18:01:29.095Z,98.30
2023-05-15T18:04:15.435Z,98.30
2023-05-15T18:07:02.772Z,98.60
2023-05-15T18:09:50.747Z,98.40
2023-05-15T18:12:37.036Z,98.30
2023-05-15T18:15:23.007Z,98.50
2023-05-15T18:18:09.024Z,98.50
2023-05-15T18:20:54.781Z,98.70
2023-05-15T18:23:41.808Z,99.10
2023-05-15T18:26:29.530Z,99.70
2023-05-15T18:29:15.603Z,99.90
2023-05-15T18:32:01.377Z,99.90
2023-05-15T18:34:47.611Z,99.90
2023-05-15T18:37:33.584Z,99.90
2023-05-15T18:40:23.583Z,99.70
2023-05-15T18:43:09.244Z,99.90
2023-05-15T18:45:55.573Z,99.90
2023-05-15T18:48:41.355Z,99.90
2023-05-15T18:51:27.305Z,99.90
2023-05-15T18:54:13.439Z,99.90
2023-05-15T18:57:00.527Z,99.90
2023-05-15T18:59:48.098Z,99.90
2023-05-15T19:02:33.850Z,99.90
2023-05-15T19:05:20.179Z,99.90
2023-05-15T19:08:07.307Z,99.90
2023-05-15T19:10:53.001Z,99.90
2023-05-15T19:13:40.373Z,99.90
2023-05-15T19:16:28.552Z,99.90
2023-05-15T19:19:15.424Z,99.90
2023-05-15T19:22:07.428Z,99.90
2023-05-15T19:24:56.691Z,99.90
2023-05-15T19:27:42.642Z,99.90
2023-05-15T19:30:30.873Z,99.90
2023-05-15T19:33:16.755Z,99.90
2023-05-15T19:36:02.375Z,99.90
2023-05-15T19:38:50.432Z,99.90
2023-05-15T19:41:36.794Z,99.90
2023-05-15T19:44:23.207Z,99.90
2023-05-15T19:47:10.296Z,99.90
2023-05-15T19:49:55.922Z,99.90
2023-05-15T19:52:43.461Z,99.90
2023-05-15T19:55:31.356Z,99.90
2023-05-15T19:58:20.191Z,99.90
2023-05-15T20:01:10.787Z,99.90
2023-05-15T20:03:58.415Z,99.90
2023-05-15T20:06:44.654Z,99.90
2023-05-15T20:09:30.791Z,99.90
2023-05-15T20:12:21.770Z,99.90
2023-05-15T20:15:12.272Z,99.90
2023-05-15T20:18:04.854Z,99.90
2023-05-15T20:20:57.729Z,99.90
2023-05-15T20:23:45.663Z,99.90
2023-05-15T20:26:36.084Z,99.90
2023-05-15T20:29:23.013Z,99.90
2023-05-15T20:32:13.316Z,99.90
2023-05-15T20:35:02.236Z,99.90
2023-05-15T20:37:51.234Z,99.90
2023-05-15T20:40:37.201Z,99.90
2023-05-15T20:43:23.473Z,99.90
2023-05-15T20:46:09.352Z,99.90
2023-05-15T20:48:59.081Z,99.90
2023-05-15T20:51:46.095Z,99.90
2023-05-15T20:54:33.547Z,99.90
2023-05-15T20:57:19.107Z,99.90
2023-05-15T21:00:06.781Z,99.90
2023-05-15T21:02:52.772Z,99.90
2023-05-15T21:05:38.278Z,99.90
2023-05-15T21:08:24.007Z,99.90
2023-05-15T21:11:11.194Z,99.90
2023-05-15T21:13:57.417Z,99.90
2023-05-15T21:16:43.039Z,99.90
2023-05-15T21:19:28.988Z,99.90
2023-05-15T21:22:14.741Z,99.90
2023-05-15T21:25:00.526Z,99.90
2023-05-15T21:27:47.710Z,99.90
2023-05-15T21:30:33.516Z,99.90
2023-05-15T21:33:19.324Z,99.90
2023-05-15T21:36:05.982Z,99.90
2023-05-15T21:39:03.679Z,99.90
2023-05-15T21:41:53.689Z,99.90
2023-05-15T21:45:07.746Z,99.90
2023-05-15T21:47:53.574Z,99.90
2023-05-15T21:50:39.686Z,99.90
2023-05-15T21:53:27.366Z,99.90
2023-05-15T21:56:13.017Z,99.90
2023-05-15T21:58:58.736Z,99.90
2023-05-15T22:01:46.409Z,99.90
2023-05-15T22:04:32.315Z,99.90
2023-05-15T22:07:18.259Z,99.90
2023-05-15T22:10:05.275Z,99.90
2023-05-15T22:12:51.688Z,99.90
2023-05-15T22:15:37.401Z,99.90
2023-05-15T22:18:24.830Z,99.90
2023-05-15T22:21:10.643Z,99.90
2023-05-15T22:23:56.387Z,99.90
2023-05-15T22:26:42.241Z,99.90
2023-05-15T22:29:27.892Z,99.90
2023-05-15T22:32:13.847Z,99.90
2023-05-15T22:35:01.025Z,99.90
2023-05-15T22:37:46.854Z,99.90
2023-05-15T22:40:34.716Z,99.90
2023-05-15T22:43:21.472Z,99.90
2023-05-15T22:46:07.232Z,99.90
2023-05-15T22:48:53.053Z,99.90
2023-05-15T22:51:41.656Z,99.90
2023-05-15T22:54:27.542Z,99.90
2023-05-15T22:57:13.191Z,99.90
2023-05-15T22:59:59.666Z,99.90
2023-05-15T23:02:48.248Z,99.90
2023-05-15T23:05:34.281Z,99.90
2023-05-15T23:08:21.484Z,99.90
2023-05-15T23:11:07.425Z,99.90
2023-05-15T23:13:53.000Z,99.90
2023-05-15T23:16:38.721Z,99.90
2023-05-15T23:19:24.670Z,99.90
2023-05-15T23:22:12.346Z,99.90
2023-05-15T23:24:59.070Z,99.90
2023-05-15T23:27:45.036Z,99.90
2023-05-15T23:30:30.982Z,99.90
2023-05-15T23:33:17.217Z,99.90
2023-05-15T23:36:02.968Z,99.90
2023-05-15T23:38:48.935Z,99.90
2023-05-15T23:41:36.455Z,99.90
2023-05-15T23:44:22.395Z,99.90
2023-05-15T23:47:08.652Z,99.90
2023-05-15T23:49:54.585Z,99.90
2023-05-15T23:52:40.279Z,99.90
2023-05-15T23:55:25.740Z,99.90
2023-05-15T23:58:13.166Z,99.90
